sensor_id;sensor_type;location;lat;lon;timestamp;pressure;altitude;pressure_sealevel;temperature;humidity
11415;BME280;5763;42.714;23.244;2023-05-23T00:00:12;94451.00;;;14.31;87.65
11415;BME280;5763;42.714;23.244;2023-05-23T00:02:41;94449.78;;;14.17;88.33
11415;BME280;5763;42.714;23.244;2023-05-23T00:05:08;94452.38;;;14.06;88.40
11415;BME280;5763;42.714;23.244;2023-05-23T00:07:35;94447.53;;;14.01;88.83
11415;BME280;5763;42.714;23.244;2023-05-23T00:10:02;94454.66;;;13.93;88.96
11415;BME280;5763;42.714;23.244;2023-05-23T00:12:29;94453.94;;;13.93;88.68
11415;BME280;5763;42.714;23.244;2023-05-23T00:14:56;94447.56;;;13.87;88.70
11415;BME280;5763;42.714;23.244;2023-05-23T00:17:22;94446.50;;;13.84;88.68
11415;BME280;5763;42.714;23.244;2023-05-23T00:19:52;94440.28;;;13.84;88.54
11415;BME280;5763;42.714;23.244;2023-05-23T00:22:20;94440.06;;;13.87;87.93
11415;BME280;5763;42.714;23.244;2023-05-23T00:24:47;94443.38;;;13.77;89.03
11415;BME280;5763;42.714;23.244;2023-05-23T00:27:13;94448.41;;;13.78;89.39
11415;BME280;5763;42.714;23.244;2023-05-23T00:29:40;94456.97;;;13.80;89.27
11415;BME280;5763;42.714;23.244;2023-05-23T00:32:07;94443.09;;;13.89;88.89
11415;BME280;5763;42.714;23.244;2023-05-23T00:34:33;94441.38;;;14.06;88.85
11415;BME280;5763;42.714;23.244;2023-05-23T00:37:04;94434.91;;;14.09;88.50
11415;BME280;5763;42.714;23.244;2023-05-23T00:39:30;94432.13;;;14.09;88.02
11415;BME280;5763;42.714;23.244;2023-05-23T00:41:58;94440.81;;;14.02;88.90
11415;BME280;5763;42.714;23.244;2023-05-23T00:44:26;94438.16;;;14.08;87.72
11415;BME280;5763;42.714;23.244;2023-05-23T00:46:55;94445.16;;;14.09;87.00
11415;BME280;5763;42.714;23.244;2023-05-23T00:49:22;94446.41;;;14.08;86.27
11415;BME280;5763;42.714;23.244;2023-05-23T00:51:52;94439.75;;;14.00;87.79
11415;BME280;5763;42.714;23.244;2023-05-23T00:54:24;94442.59;;;14.20;87.00
11415;BME280;5763;42.714;23.244;2023-05-23T00:56:53;94450.53;;;14.18;86.94
11415;BME280;5763;42.714;23.244;2023-05-23T00:59:20;94449.22;;;14.13;86.38
11415;BME280;5763;42.714;23.244;2023-05-23T01:01:49;94447.22;;;14.14;87.22
11415;BME280;5763;42.714;23.244;2023-05-23T01:04:17;94447.22;;;14.14;87.02
11415;BME280;5763;42.714;23.244;2023-05-23T01:06:44;94452.84;;;14.19;86.77
11415;BME280;5763;42.714;23.244;2023-05-23T01:09:13;94448.75;;;14.15;86.74
11415;BME280;5763;42.714;23.244;2023-05-23T01:11:46;94447.41;;;14.10;86.58
11415;BME280;5763;42.714;23.244;2023-05-23T01:14:19;94448.53;;;14.18;86.52
11415;BME280;5763;42.714;23.244;2023-05-23T01:16:52;94448.44;;;14.13;86.46
11415;BME280;5763;42.714;23.244;2023-05-23T01:19:45;94443.25;;;14.15;85.98
11415;BME280;5763;42.714;23.244;2023-05-23T01:22:21;94452.66;;;14.08;85.01
11415;BME280;5763;42.714;23.244;2023-05-23T01:24:53;94450.16;;;14.10;85.56
11415;BME280;5763;42.714;23.244;2023-05-23T01:27:39;94447.72;;;14.12;85.86
11415;BME280;5763;42.714;23.244;2023-05-23T01:30:09;94447.63;;;14.07;85.92
11415;BME280;5763;42.714;23.244;2023-05-23T01:32:39;94445.38;;;14.05;85.74
11415;BME280;5763;42.714;23.244;2023-05-23T01:35:06;94439.56;;;14.03;85.03
11415;BME280;5763;42.714;23.244;2023-05-23T01:37:34;94434.72;;;13.98;85.36
11415;BME280;5763;42.714;23.244;2023-05-23T01:40:00;94431.81;;;13.87;83.37
11415;BME280;5763;42.714;23.244;2023-05-23T01:42:27;94438.47;;;13.81;83.66
11415;BME280;5763;42.714;23.244;2023-05-23T01:44:55;94434.19;;;13.80;84.03
11415;BME280;5763;42.714;23.244;2023-05-23T01:47:24;94444.06;;;13.86;84.77
11415;BME280;5763;42.714;23.244;2023-05-23T01:49:51;94439.41;;;13.92;84.85
11415;BME280;5763;42.714;23.244;2023-05-23T01:52:20;94431.16;;;13.92;83.99
11415;BME280;5763;42.714;23.244;2023-05-23T01:54:48;94428.97;;;13.82;84.55
11415;BME280;5763;42.714;23.244;2023-05-23T01:57:16;94418.38;;;13.75;85.15
11415;BME280;5763;42.714;23.244;2023-05-23T01:59:45;94425.31;;;13.70;85.25
11415;BME280;5763;42.714;23.244;2023-05-23T02:02:13;94429.63;;;13.77;85.19
11415;BME280;5763;42.714;23.244;2023-05-23T02:04:40;94425.75;;;13.83;85.02
11415;BME280;5763;42.714;23.244;2023-05-23T02:07:06;94428.28;;;13.87;84.72
11415;BME280;5763;42.714;23.244;2023-05-23T02:09:33;94431.03;;;13.87;83.77
11415;BME280;5763;42.714;23.244;2023-05-23T02:12:00;94437.41;;;13.78;84.22
11415;BME280;5763;42.714;23.244;2023-05-23T02:14:27;94433.63;;;13.76;84.24
11415;BME280;5763;42.714;23.244;2023-05-23T02:16:53;94434.41;;;13.76;84.36
11415;BME280;5763;42.714;23.244;2023-05-23T02:19:21;94430.31;;;13.72;84.65
11415;BME280;5763;42.714;23.244;2023-05-23T02:21:48;94437.63;;;13.60;85.12
11415;BME280;5763;42.714;23.244;2023-05-23T02:24:15;94420.47;;;13.65;85.07
11415;BME280;5763;42.714;23.244;2023-05-23T02:26:42;94427.69;;;13.63;84.85
11415;BME280;5763;42.714;23.244;2023-05-23T02:29:08;94420.06;;;13.72;85.10
11415;BME280;5763;42.714;23.244;2023-05-23T02:31:35;94429.25;;;13.69;84.86
11415;BME280;5763;42.714;23.244;2023-05-23T02:34:02;94423.75;;;13.69;85.29
11415;BME280;5763;42.714;23.244;2023-05-23T02:36:30;94427.22;;;13.64;85.83
11415;BME280;5763;42.714;23.244;2023-05-23T02:38:57;94416.09;;;13.73;85.01
11415;BME280;5763;42.714;23.244;2023-05-23T02:41:24;94415.81;;;13.71;84.83
11415;BME280;5763;42.714;23.244;2023-05-23T02:43:51;94426.06;;;13.71;84.95
11415;BME280;5763;42.714;23.244;2023-05-23T02:46:18;94419.97;;;13.67;84.65
11415;BME280;5763;42.714;23.244;2023-05-23T02:48:44;94415.72;;;13.66;83.98
11415;BME280;5763;42.714;23.244;2023-05-23T02:51:11;94412.97;;;13.66;84.23
11415;BME280;5763;42.714;23.244;2023-05-23T02:53:40;94424.63;;;13.61;84.66
11415;BME280;5763;42.714;23.244;2023-05-23T02:56:07;94430.03;;;13.70;84.28
11415;BME280;5763;42.714;23.244;2023-05-23T02:58:34;94425.88;;;13.60;84.34
11415;BME280;5763;42.714;23.244;2023-05-23T03:01:01;94424.75;;;13.52;85.09
11415;BME280;5763;42.714;23.244;2023-05-23T03:03:28;94416.78;;;13.54;85.51
11415;BME280;5763;42.714;23.244;2023-05-23T03:05:55;94416.13;;;13.59;85.72
11415;BME280;5763;42.714;23.244;2023-05-23T03:08:23;94423.06;;;13.54;86.93
11415;BME280;5763;42.714;23.244;2023-05-23T03:10:51;94427.97;;;13.65;86.60
11415;BME280;5763;42.714;23.244;2023-05-23T03:13:18;94427.56;;;13.72;86.49
11415;BME280;5763;42.714;23.244;2023-05-23T03:15:44;94419.03;;;13.70;87.04
11415;BME280;5763;42.714;23.244;2023-05-23T03:18:11;94422.72;;;13.67;88.24
11415;BME280;5763;42.714;23.244;2023-05-23T03:20:38;94421.50;;;13.82;88.26
11415;BME280;5763;42.714;23.244;2023-05-23T03:23:05;94436.06;;;13.88;88.91
11415;BME280;5763;42.714;23.244;2023-05-23T03:25:31;94430.47;;;13.97;89.14
11415;BME280;5763;42.714;23.244;2023-05-23T03:27:59;94437.78;;;14.00;89.47
11415;BME280;5763;42.714;23.244;2023-05-23T03:30:26;94436.06;;;14.03;90.44
11415;BME280;5763;42.714;23.244;2023-05-23T03:32:53;94435.94;;;14.12;90.73
11415;BME280;5763;42.714;23.244;2023-05-23T03:35:20;94441.91;;;14.10;91.53
11415;BME280;5763;42.714;23.244;2023-05-23T03:37:46;94448.75;;;14.15;91.69
11415;BME280;5763;42.714;23.244;2023-05-23T03:40:13;94440.59;;;14.20;91.87
11415;BME280;5763;42.714;23.244;2023-05-23T03:42:40;94440.75;;;14.31;91.92
11415;BME280;5763;42.714;23.244;2023-05-23T03:45:08;94441.59;;;14.37;92.41
11415;BME280;5763;42.714;23.244;2023-05-23T03:47:35;94449.66;;;14.41;92.28
11415;BME280;5763;42.714;23.244;2023-05-23T03:50:02;94453.44;;;14.43;92.05
11415;BME280;5763;42.714;23.244;2023-05-23T03:52:29;94439.78;;;14.34;92.34
11415;BME280;5763;42.714;23.244;2023-05-23T03:54:56;94455.72;;;14.45;92.26
11415;BME280;5763;42.714;23.244;2023-05-23T03:57:22;94454.25;;;14.49;92.43
11415;BME280;5763;42.714;23.244;2023-05-23T03:59:49;94454.94;;;14.44;92.93
11415;BME280;5763;42.714;23.244;2023-05-23T04:02:17;94450.41;;;14.41;93.09
11415;BME280;5763;42.714;23.244;2023-05-23T04:04:44;94456.19;;;14.43;93.35
11415;BME280;5763;42.714;23.244;2023-05-23T04:07:11;94453.63;;;14.40;93.32
11415;BME280;5763;42.714;23.244;2023-05-23T04:09:40;94454.19;;;14.44;92.53
11415;BME280;5763;42.714;23.244;2023-05-23T04:12:07;94453.69;;;14.45;92.49
11415;BME280;5763;42.714;23.244;2023-05-23T04:14:34;94455.97;;;14.47;92.13
11415;BME280;5763;42.714;23.244;2023-05-23T04:17:01;94458.00;;;14.46;92.36
11415;BME280;5763;42.714;23.244;2023-05-23T04:19:29;94455.72;;;14.45;92.65
11415;BME280;5763;42.714;23.244;2023-05-23T04:21:56;94455.00;;;14.30;93.69
11415;BME280;5763;42.714;23.244;2023-05-23T04:24:23;94444.19;;;14.26;94.07
11415;BME280;5763;42.714;23.244;2023-05-23T04:26:49;94449.84;;;14.37;93.02
11415;BME280;5763;42.714;23.244;2023-05-23T04:29:16;94447.94;;;14.43;92.09
11415;BME280;5763;42.714;23.244;2023-05-23T04:31:42;94444.69;;;14.45;92.38
11415;BME280;5763;42.714;23.244;2023-05-23T04:34:10;94446.44;;;14.28;93.24
11415;BME280;5763;42.714;23.244;2023-05-23T04:36:38;94456.22;;;14.14;94.51
11415;BME280;5763;42.714;23.244;2023-05-23T04:39:05;94454.25;;;14.15;94.41
11415;BME280;5763;42.714;23.244;2023-05-23T04:41:31;94461.25;;;14.16;94.12
11415;BME280;5763;42.714;23.244;2023-05-23T04:43:58;94457.28;;;14.17;94.52
11415;BME280;5763;42.714;23.244;2023-05-23T04:46:25;94465.09;;;14.04;96.17
11415;BME280;5763;42.714;23.244;2023-05-23T04:48:51;94452.38;;;14.06;97.42
11415;BME280;5763;42.714;23.244;2023-05-23T04:51:19;94456.44;;;14.11;97.45
11415;BME280;5763;42.714;23.244;2023-05-23T04:53:48;94461.16;;;14.10;97.43
11415;BME280;5763;42.714;23.244;2023-05-23T04:56:15;94466.22;;;14.26;97.60
11415;BME280;5763;42.714;23.244;2023-05-23T04:58:45;94472.75;;;14.29;97.76
11415;BME280;5763;42.714;23.244;2023-05-23T05:01:12;94462.38;;;14.38;96.92
11415;BME280;5763;42.714;23.244;2023-05-23T05:03:40;94465.75;;;14.48;95.70
11415;BME280;5763;42.714;23.244;2023-05-23T05:06:07;94470.09;;;14.54;94.73
11415;BME280;5763;42.714;23.244;2023-05-23T05:08:34;94470.25;;;14.65;93.69
11415;BME280;5763;42.714;23.244;2023-05-23T05:11:02;94485.13;;;14.73;92.56
11415;BME280;5763;42.714;23.244;2023-05-23T05:13:29;94478.81;;;14.67;92.89
11415;BME280;5763;42.714;23.244;2023-05-23T05:15:56;94475.41;;;14.78;92.45
11415;BME280;5763;42.714;23.244;2023-05-23T05:18:23;94481.25;;;14.65;92.71
11415;BME280;5763;42.714;23.244;2023-05-23T05:20:51;94485.59;;;14.72;93.33
11415;BME280;5763;42.714;23.244;2023-05-23T05:23:17;94487.34;;;14.69;91.59
11415;BME280;5763;42.714;23.244;2023-05-23T05:25:44;94480.69;;;14.61;91.67
11415;BME280;5763;42.714;23.244;2023-05-23T05:28:13;94476.22;;;14.64;92.45
11415;BME280;5763;42.714;23.244;2023-05-23T05:30:40;94470.13;;;14.74;91.85
11415;BME280;5763;42.714;23.244;2023-05-23T05:33:06;94470.81;;;14.69;92.40
11415;BME280;5763;42.714;23.244;2023-05-23T05:35:34;94473.13;;;14.76;92.23
11415;BME280;5763;42.714;23.244;2023-05-23T05:38:02;94479.75;;;14.84;92.51
11415;BME280;5763;42.714;23.244;2023-05-23T05:40:30;94479.84;;;14.90;92.56
11415;BME280;5763;42.714;23.244;2023-05-23T05:42:57;94484.84;;;14.91;92.63
11415;BME280;5763;42.714;23.244;2023-05-23T05:45:25;94485.88;;;14.94;92.76
11415;BME280;5763;42.714;23.244;2023-05-23T05:47:52;94480.16;;;14.97;92.08
11415;BME280;5763;42.714;23.244;2023-05-23T05:50:19;94489.28;;;15.03;91.56
11415;BME280;5763;42.714;23.244;2023-05-23T05:52:45;94492.97;;;15.00;91.95
11415;BME280;5763;42.714;23.244;2023-05-23T05:55:12;94496.50;;;15.01;91.99
11415;BME280;5763;42.714;23.244;2023-05-23T05:57:39;94498.28;;;15.04;92.50
11415;BME280;5763;42.714;23.244;2023-05-23T06:00:08;94492.97;;;15.00;92.78
11415;BME280;5763;42.714;23.244;2023-05-23T06:02:39;94496.16;;;14.93;92.91
11415;BME280;5763;42.714;23.244;2023-05-23T06:05:07;94494.44;;;14.96;93.56
11415;BME280;5763;42.714;23.244;2023-05-23T06:07:36;94495.59;;;15.09;93.63
11415;BME280;5763;42.714;23.244;2023-05-23T06:10:04;94497.53;;;15.23;93.36
11415;BME280;5763;42.714;23.244;2023-05-23T06:12:30;94497.09;;;15.30;92.45
11415;BME280;5763;42.714;23.244;2023-05-23T06:14:57;94500.13;;;15.32;92.18
11415;BME280;5763;42.714;23.244;2023-05-23T06:17:24;94493.09;;;15.51;91.93
11415;BME280;5763;42.714;23.244;2023-05-23T06:19:52;94489.88;;;15.58;91.63
11415;BME280;5763;42.714;23.244;2023-05-23T06:22:19;94491.09;;;15.77;90.49
11415;BME280;5763;42.714;23.244;2023-05-23T06:24:46;94499.75;;;15.90;89.27
11415;BME280;5763;42.714;23.244;2023-05-23T06:27:12;94497.06;;;16.01;88.61
11415;BME280;5763;42.714;23.244;2023-05-23T06:29:39;94493.63;;;15.81;89.60
11415;BME280;5763;42.714;23.244;2023-05-23T06:32:06;94500.78;;;15.93;89.82
11415;BME280;5763;42.714;23.244;2023-05-23T06:34:33;94486.59;;;16.11;88.95
11415;BME280;5763;42.714;23.244;2023-05-23T06:37:01;94491.19;;;16.19;88.21
11415;BME280;5763;42.714;23.244;2023-05-23T06:39:27;94495.31;;;16.35;87.06
11415;BME280;5763;42.714;23.244;2023-05-23T06:41:54;94495.19;;;16.49;86.30
11415;BME280;5763;42.714;23.244;2023-05-23T06:44:21;94488.78;;;16.69;86.20
11415;BME280;5763;42.714;23.244;2023-05-23T06:46:48;94490.53;;;16.66;85.47
11415;BME280;5763;42.714;23.244;2023-05-23T06:49:15;94496.34;;;16.74;85.11
11415;BME280;5763;42.714;23.244;2023-05-23T06:51:41;94495.06;;;16.69;84.10
11415;BME280;5763;42.714;23.244;2023-05-23T06:54:10;94488.75;;;16.63;83.98
11415;BME280;5763;42.714;23.244;2023-05-23T06:56:36;94483.19;;;16.52;85.20
11415;BME280;5763;42.714;23.244;2023-05-23T06:59:03;94483.66;;;16.51;85.48
11415;BME280;5763;42.714;23.244;2023-05-23T07:01:30;94482.91;;;16.50;85.05
11415;BME280;5763;42.714;23.244;2023-05-23T07:03:57;94481.16;;;16.53;86.34
11415;BME280;5763;42.714;23.244;2023-05-23T07:06:24;94486.72;;;16.58;86.84
11415;BME280;5763;42.714;23.244;2023-05-23T07:08:51;94478.50;;;16.69;86.62
11415;BME280;5763;42.714;23.244;2023-05-23T07:11:20;94469.00;;;16.76;85.93
11415;BME280;5763;42.714;23.244;2023-05-23T07:13:47;94466.53;;;16.89;85.11
11415;BME280;5763;42.714;23.244;2023-05-23T07:16:13;94460.75;;;16.87;85.78
11415;BME280;5763;42.714;23.244;2023-05-23T07:18:40;94455.50;;;16.94;86.26
11415;BME280;5763;42.714;23.244;2023-05-23T07:21:07;94462.06;;;16.97;86.84
11415;BME280;5763;42.714;23.244;2023-05-23T07:23:34;94454.53;;;16.98;87.44
11415;BME280;5763;42.714;23.244;2023-05-23T07:26:01;94452.28;;;17.07;86.18
11415;BME280;5763;42.714;23.244;2023-05-23T07:28:29;94452.81;;;17.16;84.53
11415;BME280;5763;42.714;23.244;2023-05-23T07:30:55;94448.56;;;17.26;85.17
11415;BME280;5763;42.714;23.244;2023-05-23T07:33:22;94451.63;;;17.34;85.53
11415;BME280;5763;42.714;23.244;2023-05-23T07:35:49;94443.13;;;17.43;85.16
11415;BME280;5763;42.714;23.244;2023-05-23T07:38:16;94449.19;;;17.58;84.09
11415;BME280;5763;42.714;23.244;2023-05-23T07:40:43;94447.44;;;17.61;83.96
11415;BME280;5763;42.714;23.244;2023-05-23T07:43:10;94449.97;;;17.75;82.40
11415;BME280;5763;42.714;23.244;2023-05-23T07:45:38;94446.47;;;17.86;81.54
11415;BME280;5763;42.714;23.244;2023-05-23T07:48:04;94449.47;;;17.98;81.34
11415;BME280;5763;42.714;23.244;2023-05-23T07:50:31;94442.91;;;18.07;81.68
11415;BME280;5763;42.714;23.244;2023-05-23T07:52:58;94449.47;;;18.09;82.50
11415;BME280;5763;42.714;23.244;2023-05-23T07:55:25;94443.19;;;18.20;82.40
11415;BME280;5763;42.714;23.244;2023-05-23T07:57:51;94445.19;;;18.31;81.66
11415;BME280;5763;42.714;23.244;2023-05-23T08:00:19;94436.38;;;18.38;81.89
11415;BME280;5763;42.714;23.244;2023-05-23T08:02:47;94444.41;;;18.52;80.12
11415;BME280;5763;42.714;23.244;2023-05-23T08:05:14;94444.88;;;18.67;79.38
11415;BME280;5763;42.714;23.244;2023-05-23T08:07:43;94451.16;;;18.73;79.91
11415;BME280;5763;42.714;23.244;2023-05-23T08:10:10;94437.84;;;18.72;80.50
11415;BME280;5763;42.714;23.244;2023-05-23T08:12:37;94444.63;;;18.71;81.38
11415;BME280;5763;42.714;23.244;2023-05-23T08:15:05;94435.78;;;18.78;79.92
11415;BME280;5763;42.714;23.244;2023-05-23T08:17:32;94447.13;;;18.80;78.62
11415;BME280;5763;42.714;23.244;2023-05-23T08:20:00;94447.34;;;18.93;76.23
11415;BME280;5763;42.714;23.244;2023-05-23T08:22:29;94439.25;;;19.00;77.05
11415;BME280;5763;42.714;23.244;2023-05-23T08:24:55;94440.19;;;19.14;76.61
11415;BME280;5763;42.714;23.244;2023-05-23T08:27:22;94435.38;;;19.25;76.79
11415;BME280;5763;42.714;23.244;2023-05-23T08:29:49;94432.34;;;19.29;76.85
11415;BME280;5763;42.714;23.244;2023-05-23T08:32:17;94432.03;;;19.38;76.40
11415;BME280;5763;42.714;23.244;2023-05-23T08:34:43;94434.75;;;19.49;77.02
11415;BME280;5763;42.714;23.244;2023-05-23T08:37:11;94427.84;;;19.61;76.71
11415;BME280;5763;42.714;23.244;2023-05-23T08:39:38;94438.88;;;19.72;76.32
11415;BME280;5763;42.714;23.244;2023-05-23T08:42:06;94434.53;;;19.82;76.23
11415;BME280;5763;42.714;23.244;2023-05-23T08:44:33;94438.03;;;19.88;75.73
11415;BME280;5763;42.714;23.244;2023-05-23T08:47:02;94441.97;;;19.98;74.66
11415;BME280;5763;42.714;23.244;2023-05-23T08:49:30;94435.41;;;20.01;74.29
11415;BME280;5763;42.714;23.244;2023-05-23T08:52:00;94430.34;;;20.05;74.89
11415;BME280;5763;42.714;23.244;2023-05-23T08:54:29;94437.53;;;20.19;72.79
11415;BME280;5763;42.714;23.244;2023-05-23T08:56:57;94434.16;;;20.31;71.21
11415;BME280;5763;42.714;23.244;2023-05-23T08:59:25;94429.47;;;20.45;71.64
11415;BME280;5763;42.714;23.244;2023-05-23T09:01:54;94430.09;;;20.62;69.77
11415;BME280;5763;42.714;23.244;2023-05-23T09:04:21;94426.94;;;20.71;70.10
11415;BME280;5763;42.714;23.244;2023-05-23T09:06:48;94429.06;;;20.83;69.03
11415;BME280;5763;42.714;23.244;2023-05-23T09:09:15;94429.63;;;20.82;66.72
11415;BME280;5763;42.714;23.244;2023-05-23T09:11:43;94424.28;;;20.84;66.19
11415;BME280;5763;42.714;23.244;2023-05-23T09:14:11;94430.38;;;21.06;64.19
11415;BME280;5763;42.714;23.244;2023-05-23T09:16:45;94426.63;;;21.22;60.45
11415;BME280;5763;42.714;23.244;2023-05-23T09:19:12;94425.13;;;21.21;60.46
11415;BME280;5763;42.714;23.244;2023-05-23T09:21:42;94418.06;;;21.20;60.63
11415;BME280;5763;42.714;23.244;2023-05-23T09:24:09;94417.97;;;21.26;58.88
11415;BME280;5763;42.714;23.244;2023-05-23T09:26:36;94408.19;;;21.38;58.57
11415;BME280;5763;42.714;23.244;2023-05-23T09:31:32;94401.88;;;21.74;55.88
11415;BME280;5763;42.714;23.244;2023-05-23T09:33:59;94396.25;;;21.80;54.44
11415;BME280;5763;42.714;23.244;2023-05-23T09:36:27;94394.56;;;21.90;53.13
11415;BME280;5763;42.714;23.244;2023-05-23T09:38:55;94396.78;;;22.10;53.12
11415;BME280;5763;42.714;23.244;2023-05-23T09:41:22;94395.50;;;22.24;54.15
11415;BME280;5763;42.714;23.244;2023-05-23T09:43:50;94392.97;;;22.39;51.78
11415;BME280;5763;42.714;23.244;2023-05-23T09:46:20;94382.72;;;22.47;49.32
11415;BME280;5763;42.714;23.244;2023-05-23T09:48:47;94386.47;;;22.62;49.22
11415;BME280;5763;42.714;23.244;2023-05-23T09:51:17;94382.41;;;22.76;49.76
11415;BME280;5763;42.714;23.244;2023-05-23T09:53:45;94384.56;;;22.83;49.91
11415;BME280;5763;42.714;23.244;2023-05-23T09:56:12;94384.13;;;22.92;49.37
11415;BME280;5763;42.714;23.244;2023-05-23T09:58:43;94370.94;;;22.93;48.24
11415;BME280;5763;42.714;23.244;2023-05-23T10:01:10;94375.97;;;23.07;47.10
11415;BME280;5763;42.714;23.244;2023-05-23T10:03:44;94379.94;;;23.25;47.14
11415;BME280;5763;42.714;23.244;2023-05-23T10:06:15;94371.66;;;23.06;45.94
11415;BME280;5763;42.714;23.244;2023-05-23T10:08:45;94368.88;;;23.06;46.24
11415;BME280;5763;42.714;23.244;2023-05-23T10:14:13;94376.38;;;23.37;45.46
11415;BME280;5763;42.714;23.244;2023-05-23T10:16:46;94368.69;;;23.51;43.66
11415;BME280;5763;42.714;23.244;2023-05-23T10:19:22;94375.31;;;23.74;42.90
11415;BME280;5763;42.714;23.244;2023-05-23T10:21:55;94369.56;;;23.79;43.69
11415;BME280;5763;42.714;23.244;2023-05-23T10:24:23;94371.22;;;23.75;44.70
11415;BME280;5763;42.714;23.244;2023-05-23T10:26:51;94368.84;;;23.79;41.63
11415;BME280;5763;42.714;23.244;2023-05-23T10:29:19;94369.88;;;24.09;38.64
11415;BME280;5763;42.714;23.244;2023-05-23T10:31:46;94365.38;;;24.27;39.28
11415;BME280;5763;42.714;23.244;2023-05-23T10:34:19;94364.56;;;24.39;40.79
11415;BME280;5763;42.714;23.244;2023-05-23T10:36:55;94373.16;;;24.21;41.89
11415;BME280;5763;42.714;23.244;2023-05-23T10:39:33;94354.56;;;24.51;41.91
11415;BME280;5763;42.714;23.244;2023-05-23T10:42:06;94361.97;;;24.62;39.89
11415;BME280;5763;42.714;23.244;2023-05-23T10:44:35;94349.59;;;24.85;37.49
11415;BME280;5763;42.714;23.244;2023-05-23T10:47:03;94357.91;;;25.06;37.80
11415;BME280;5763;42.714;23.244;2023-05-23T10:49:42;94344.44;;;25.32;38.17
11415;BME280;5763;42.714;23.244;2023-05-23T10:52:10;94332.22;;;25.58;38.22
11415;BME280;5763;42.714;23.244;2023-05-23T10:54:41;94344.22;;;25.88;37.93
11415;BME280;5763;42.714;23.244;2023-05-23T10:57:10;94339.94;;;25.87;37.07
11415;BME280;5763;42.714;23.244;2023-05-23T10:59:38;94345.31;;;25.70;35.70
11415;BME280;5763;42.714;23.244;2023-05-23T11:02:09;94342.16;;;25.74;36.13
11415;BME280;5763;42.714;23.244;2023-05-23T11:04:38;94347.00;;;25.73;33.78
11415;BME280;5763;42.714;23.244;2023-05-23T11:07:30;94340.84;;;25.82;34.56
11415;BME280;5763;42.714;23.244;2023-05-23T11:10:07;94339.06;;;26.00;36.40
11415;BME280;5763;42.714;23.244;2023-05-23T11:12:38;94329.72;;;26.20;35.99
11415;BME280;5763;42.714;23.244;2023-05-23T11:15:21;94328.78;;;26.02;35.67
11415;BME280;5763;42.714;23.244;2023-05-23T11:17:50;94317.94;;;25.99;34.76
11415;BME280;5763;42.714;23.244;2023-05-23T11:20:19;94324.44;;;26.09;34.62
11415;BME280;5763;42.714;23.244;2023-05-23T11:23:00;94315.09;;;26.21;35.51
11415;BME280;5763;42.714;23.244;2023-05-23T11:25:40;94337.56;;;26.44;37.81
11415;BME280;5763;42.714;23.244;2023-05-23T11:28:08;94322.97;;;26.38;34.68
11415;BME280;5763;42.714;23.244;2023-05-23T11:30:36;94322.19;;;26.52;33.92
11415;BME280;5763;42.714;23.244;2023-05-23T11:33:07;94322.94;;;26.83;34.86
11415;BME280;5763;42.714;23.244;2023-05-23T11:35:38;94318.38;;;27.10;34.78
11415;BME280;5763;42.714;23.244;2023-05-23T11:38:07;94312.81;;;27.42;34.14
11415;BME280;5763;42.714;23.244;2023-05-23T11:40:35;94312.22;;;27.51;32.95
11415;BME280;5763;42.714;23.244;2023-05-23T11:43:04;94312.19;;;27.58;32.75
11415;BME280;5763;42.714;23.244;2023-05-23T11:45:32;94309.59;;;27.53;33.32
11415;BME280;5763;42.714;23.244;2023-05-23T11:48:04;94311.06;;;27.22;31.69
11415;BME280;5763;42.714;23.244;2023-05-23T11:50:31;94315.13;;;26.59;32.18
11415;BME280;5763;42.714;23.244;2023-05-23T11:52:58;94314.72;;;26.47;33.46
11415;BME280;5763;42.714;23.244;2023-05-23T11:55:26;94303.47;;;26.55;34.08
11415;BME280;5763;42.714;23.244;2023-05-23T11:57:55;94306.66;;;26.81;33.28
11415;BME280;5763;42.714;23.244;2023-05-23T12:00:23;94297.78;;;27.00;33.26
11415;BME280;5763;42.714;23.244;2023-05-23T12:02:49;94301.44;;;27.32;32.20
11415;BME280;5763;42.714;23.244;2023-05-23T12:05:16;94298.72;;;27.49;33.35
11415;BME280;5763;42.714;23.244;2023-05-23T12:07:44;94300.66;;;27.39;32.71
11415;BME280;5763;42.714;23.244;2023-05-23T12:10:11;94297.13;;;27.39;32.61
11415;BME280;5763;42.714;23.244;2023-05-23T12:12:41;94290.47;;;27.12;30.78
11415;BME280;5763;42.714;23.244;2023-05-23T12:15:10;94288.31;;;26.80;31.53
11415;BME280;5763;42.714;23.244;2023-05-23T12:17:37;94281.03;;;26.70;33.06
11415;BME280;5763;42.714;23.244;2023-05-23T12:20:05;94283.47;;;26.73;33.64
11415;BME280;5763;42.714;23.244;2023-05-23T12:22:33;94252.41;;;26.41;31.51
11415;BME280;5763;42.714;23.244;2023-05-23T12:25:00;94277.69;;;26.56;32.51
11415;BME280;5763;42.714;23.244;2023-05-23T12:27:32;94277.28;;;26.67;33.17
11415;BME280;5763;42.714;23.244;2023-05-23T12:30:08;94269.94;;;26.94;32.82
11415;BME280;5763;42.714;23.244;2023-05-23T12:32:38;94272.78;;;27.34;34.22
11415;BME280;5763;42.714;23.244;2023-05-23T12:35:06;94268.53;;;27.57;34.06
11415;BME280;5763;42.714;23.244;2023-05-23T12:37:34;94268.16;;;27.53;32.89
11415;BME280;5763;42.714;23.244;2023-05-23T12:40:14;94264.59;;;27.60;31.21
11415;BME280;5763;42.714;23.244;2023-05-23T12:42:48;94264.09;;;27.79;31.17
11415;BME280;5763;42.714;23.244;2023-05-23T12:45:18;94263.09;;;27.91;30.64
11415;BME280;5763;42.714;23.244;2023-05-23T12:47:45;94260.53;;;28.03;30.18
11415;BME280;5763;42.714;23.244;2023-05-23T12:50:12;94253.31;;;28.17;30.81
11415;BME280;5763;42.714;23.244;2023-05-23T12:52:38;94253.16;;;28.32;30.39
11415;BME280;5763;42.714;23.244;2023-05-23T12:55:06;94252.72;;;28.60;30.57
11415;BME280;5763;42.714;23.244;2023-05-23T12:57:34;94250.00;;;28.52;29.72
11415;BME280;5763;42.714;23.244;2023-05-23T13:00:00;94244.78;;;28.49;29.23
11415;BME280;5763;42.714;23.244;2023-05-23T13:02:29;94251.19;;;28.25;28.45
11415;BME280;5763;42.714;23.244;2023-05-23T13:04:55;94236.88;;;27.49;30.04
11415;BME280;5763;42.714;23.244;2023-05-23T13:07:22;94241.19;;;27.18;30.48
11415;BME280;5763;42.714;23.244;2023-05-23T13:09:49;94241.06;;;27.41;29.96